Time;durP1;ratioP1;P1;durP2;ratioP2;P2;SDS_P1;SDS_P2;PMS_P1;PMS_P2;Temp;Humidity;BMP_temperature;BMP_pressure;BME280_temperature;BME280_humidity;BME280_pressure;Samples;Min_cycle;Max_cycle;Signal;HPM_P1;HPM_P2
2023/03/19 00:00:00;;;;;;;9.57;3.77;;;;;;;2.01;nan;-23871.88;5012440;28;20278;-71
2023/03/19 00:02:25;;;;;;;6.87;4.00;;;;;;;2.13;nan;-23875.31;5011181;28;20626;-73
2023/03/19 00:04:51;;;;;;;17.83;4.87;;;;;;;1.66;nan;-23862.03;5014816;28;20661;-71
2023/03/19 00:07:16;;;;;;;10.83;3.47;;;;;;;1.57;nan;-23859.59;5046320;28;20186;-71
2023/03/19 00:09:43;;;;;;;7.03;4.23;;;;;;;1.56;nan;-23859.16;5015057;28;20186;-72
2023/03/19 00:12:09;;;;;;;11.57;4.60;;;;;;;1.60;nan;-23860.47;5014687;28;20205;-71
2023/03/19 00:14:35;;;;;;;9.23;5.33;;;;;;;1.34;nan;-23853.03;5008344;28;20190;-71
2023/03/19 00:17:00;;;;;;;3.67;3.13;;;;;;;1.65;nan;-23861.88;5015744;28;20239;-72
2023/03/19 00:19:26;;;;;;;4.50;3.40;;;;;;;1.95;nan;-23870.31;5015413;28;20226;-73
2023/03/19 00:21:52;;;;;;;7.67;3.90;;;;;;;1.89;nan;-23868.47;5014125;28;20275;-72
2023/03/19 00:24:18;;;;;;;8.03;4.77;;;;;;;1.99;nan;-23871.47;5014983;28;20251;-71
2023/03/19 00:26:43;;;;;;;9.90;4.20;;;;;;;1.55;nan;-23859.03;5013527;28;20182;-70
2023/03/19 00:29:09;;;;;;;22.73;5.03;;;;;;;1.50;nan;-23857.47;5012492;28;20255;-71
2023/03/19 00:31:35;;;;;;;8.90;4.20;;;;;;;1.49;nan;-23857.31;5010040;28;20511;-71
2023/03/19 00:34:01;;;;;;;9.97;4.47;;;;;;;1.78;nan;-23865.59;5014166;28;20737;-73
2023/03/19 00:36:27;;;;;;;11.30;4.10;;;;;;;1.27;nan;-23851.16;5013952;28;20177;-71
2023/03/19 00:38:53;;;;;;;4.93;3.50;;;;;;;1.50;nan;-23857.47;5014377;28;20613;-71
2023/03/19 00:41:19;;;;;;;6.27;3.37;;;;;;;1.44;nan;-23855.88;5014324;28;20207;-72
2023/03/19 00:43:46;;;;;;;5.67;3.40;;;;;;;1.41;nan;-23855.03;5014175;28;20175;-71
2023/03/19 00:46:12;;;;;;;4.97;3.27;;;;;;;1.52;nan;-23858.03;5012852;28;20663;-72
2023/03/19 00:48:37;;;;;;;5.77;2.97;;;;;;;1.37;nan;-23853.75;5014575;28;20168;-70
2023/03/19 00:51:08;;;;;;;3.27;2.97;;;;;;;1.33;nan;-23852.75;5013734;28;20657;-72
2023/03/19 00:53:38;;;;;;;3.83;2.73;;;;;;;1.41;nan;-23854.88;5012564;28;20207;-71
2023/03/19 00:56:05;;;;;;;5.23;3.40;;;;;;;1.58;nan;-23859.88;5013425;28;20193;-73
2023/03/19 00:58:30;;;;;;;7.93;3.80;;;;;;;1.47;nan;-23856.59;5014160;28;20220;-71
2023/03/19 01:00:56;;;;;;;4.73;2.43;;;;;;;1.15;nan;-23847.75;5013844;28;20186;-70
2023/03/19 01:03:21;;;;;;;3.97;3.07;;;;;;;1.03;nan;-23844.16;5013967;28;20202;-71
2023/03/19 01:05:48;;;;;;;6.27;3.23;;;;;;;1.14;nan;-23847.44;5013504;28;20184;-73
2023/03/19 01:08:15;;;;;;;4.90;3.50;;;;;;;0.82;nan;-23838.28;5014199;28;20180;-73
2023/03/19 01:10:41;;;;;;;9.57;3.57;;;;;;;0.68;nan;-23834.44;5022319;28;20180;-73
2023/03/19 01:13:06;;;;;;;4.73;3.83;;;;;;;1.02;nan;-23844.00;5013546;28;20211;-71
2023/03/19 01:15:38;;;;;;;4.07;2.97;;;;;;;0.94;nan;-23841.59;5012403;28;20245;-70
2023/03/19 01:18:04;;;;;;;7.73;3.63;;;;;;;1.09;nan;-23845.88;5013229;28;20180;-70
2023/03/19 01:20:30;;;;;;;6.50;3.70;;;;;;;1.09;nan;-23846.03;5013932;28;20572;-70
2023/03/19 01:22:55;;;;;;;4.97;3.20;;;;;;;1.12;nan;-23846.88;5013643;28;20180;-71
2023/03/19 01:25:21;;;;;;;16.40;3.70;;;;;;;1.25;nan;-23850.44;5012114;28;20238;-71
2023/03/19 01:27:46;;;;;;;6.33;3.97;;;;;;;1.24;nan;-23850.31;5013365;28;20715;-70
2023/03/19 01:30:12;;;;;;;4.40;2.70;;;;;;;1.38;nan;-23854.16;5028469;28;20230;-71
2023/03/19 01:32:38;;;;;;;8.83;3.53;;;;;;;1.10;nan;-23846.16;5013144;28;20542;-73
2023/03/19 01:35:03;;;;;;;11.63;4.27;;;;;;;1.14;nan;-23847.31;5013224;28;20573;-70
2023/03/19 01:37:29;;;;;;;5.00;3.10;;;;;;;1.05;nan;-23844.72;5013420;28;20179;-72
2023/03/19 01:39:54;;;;;;;5.03;2.90;;;;;;;1.12;nan;-23846.72;5011937;28;20596;-72
2023/03/19 01:42:20;;;;;;;3.30;2.43;;;;;;;1.39;nan;-23854.31;5013775;28;20181;-71
2023/03/19 01:44:46;;;;;;;5.03;3.50;;;;;;;1.62;nan;-23861.03;5013166;28;20651;-70
2023/03/19 01:47:22;;;;;;;6.03;4.63;;;;;;;1.60;nan;-23860.47;5011704;28;20182;-72
2023/03/19 01:49:53;;;;;;;5.20;3.80;;;;;;;1.52;nan;-23858.16;5012752;28;20175;-70
2023/03/19 01:52:20;;;;;;;4.90;3.73;;;;;;;1.13;nan;-23847.03;5013221;28;20593;-71
2023/03/19 01:54:47;;;;;;;6.93;3.37;;;;;;;1.49;nan;-23857.31;5012903;28;20180;-72
2023/03/19 01:57:14;;;;;;;7.70;3.77;;;;;;;1.01;nan;-23843.59;5012832;28;20235;-72
2023/03/19 01:59:44;;;;;;;4.13;3.47;;;;;;;1.13;nan;-23847.16;5012723;28;20600;-71
2023/03/19 02:02:37;;;;;;;5.93;2.93;;;;;;;1.40;nan;-23854.59;5012998;28;20212;-70
2023/03/19 02:05:08;;;;;;;4.13;3.40;;;;;;;0.96;nan;-23842.31;5013115;28;20668;-69
2023/03/19 02:07:35;;;;;;;6.53;3.93;;;;;;;1.26;nan;-23850.72;5005549;28;20199;-72
2023/03/19 02:10:06;;;;;;;9.40;4.20;;;;;;;1.40;nan;-23854.59;5012604;28;20195;-72
2023/03/19 02:12:31;;;;;;;5.80;3.03;;;;;;;1.35;nan;-23853.31;5012512;28;20287;-70
2023/03/19 02:14:57;;;;;;;4.23;3.07;;;;;;;1.09;nan;-23845.88;5012247;28;20180;-70
2023/03/19 02:17:22;;;;;;;6.70;3.90;;;;;;;1.40;nan;-23854.75;5011276;28;20183;-73
2023/03/19 02:20:15;;;;;;;5.47;3.13;;;;;;;1.65;nan;-23861.88;5012381;28;20617;-73
2023/03/19 02:22:50;;;;;;;3.37;3.03;;;;;;;1.64;nan;-23861.59;5012344;28;20623;-70
2023/03/19 02:25:26;;;;;;;8.47;3.20;;;;;;;1.37;nan;-23853.75;5013190;28;20662;-72
2023/03/19 02:27:52;;;;;;;6.30;3.27;;;;;;;1.33;nan;-23852.75;5012773;28;20225;-70
2023/03/19 02:30:24;;;;;;;3.47;3.00;;;;;;;1.45;nan;-23856.03;5005665;28;20314;-71
2023/03/19 02:32:50;;;;;;;5.03;2.57;;;;;;;1.98;nan;-23871.19;5012230;28;20197;-75
2023/03/19 02:35:16;;;;;;;7.33;2.83;;;;;;;1.74;nan;-23864.47;5011919;28;20184;-73
2023/03/19 02:37:41;;;;;;;7.23;4.07;;;;;;;1.55;nan;-23858.88;5012021;28;20174;-72
2023/03/19 02:40:12;;;;;;;6.77;3.60;;;;;;;1.88;nan;-23868.31;5012489;28;20266;-70
2023/03/19 02:42:38;;;;;;;7.10;3.40;;;;;;;2.06;nan;-23873.31;5027157;28;20173;-70
2023/03/19 02:45:03;;;;;;;3.90;2.70;;;;;;;2.09;nan;-23874.31;5012149;28;20183;-71
2023/03/19 02:47:29;;;;;;;10.63;3.53;;;;;;;2.36;nan;-23881.75;5012150;28;20173;-71
2023/03/19 02:49:54;;;;;;;4.27;2.70;;;;;;;1.83;nan;-23866.75;5011710;28;20588;-75
2023/03/19 02:52:21;;;;;;;4.37;3.00;;;;;;;2.17;nan;-23876.47;5012061;28;20193;-73
2023/03/19 02:54:47;;;;;;;4.17;3.17;;;;;;;2.20;nan;-23877.47;5011985;28;20183;-72
2023/03/19 02:57:12;;;;;;;7.17;3.07;;;;;;;2.29;nan;-23879.75;5011770;28;20222;-71
2023/03/19 02:59:38;;;;;;;6.27;3.43;;;;;;;2.35;nan;-23881.59;5011711;28;20621;-73
2023/03/19 03:02:04;;;;;;;5.97;3.43;;;;;;;2.37;nan;-23882.16;5011575;28;20240;-72
2023/03/19 03:04:30;;;;;;;3.43;2.53;;;;;;;2.39;nan;-23882.59;5011573;28;20178;-71
2023/03/19 03:06:57;;;;;;;3.00;2.43;;;;;;;2.24;nan;-23878.47;5011438;28;20192;-72
2023/03/19 03:09:23;;;;;;;4.23;2.20;;;;;;;2.37;nan;-23882.16;5009594;28;20188;-72
2023/03/19 03:11:48;;;;;;;5.83;3.63;;;;;;;2.64;nan;-23889.72;5007124;28;20234;-72
2023/03/19 03:14:14;;;;;;;3.03;2.67;;;;;;;2.61;nan;-23889.03;5011725;28;20688;-71
2023/03/19 03:16:39;;;;;;;6.43;3.70;;;;;;;2.45;nan;-23884.31;5011368;28;20207;-72
2023/03/19 03:19:05;;;;;;;4.00;3.27;;;;;;;2.62;nan;-23889.31;5016863;28;20261;-72
2023/03/19 03:21:30;;;;;;;5.73;3.70;;;;;;;2.46;nan;-23884.59;5018996;28;20271;-71
2023/03/19 03:23:56;;;;;;;3.87;2.73;;;;;;;2.74;nan;-23892.59;5018347;28;20260;-73
2023/03/19 03:26:21;;;;;;;6.57;3.03;;;;;;;2.66;nan;-23890.44;5019319;28;20175;-70
2023/03/19 03:28:47;;;;;;;4.20;2.50;;;;;;;2.81;nan;-23894.59;5018544;28;20552;-71
2023/03/19 03:31:13;;;;;;;3.80;3.17;;;;;;;2.88;nan;-23896.59;5016826;28;20681;-72
2023/03/19 03:33:38;;;;;;;3.57;2.93;;;;;;;2.83;nan;-23895.00;5017831;28;20208;-71
2023/03/19 03:36:04;;;;;;;6.33;2.93;;;;;;;2.51;nan;-23886.16;5016367;28;20554;-71
2023/03/19 03:38:31;;;;;;;8.00;3.70;;;;;;;2.35;nan;-23881.47;5018490;28;20176;-70
2023/03/19 03:40:56;;;;;;;5.03;2.57;;;;;;;2.76;nan;-23893.00;5018024;28;20224;-71
2023/03/19 03:43:22;;;;;;;4.77;3.53;;;;;;;2.86;nan;-23895.88;5018075;28;20630;-72
2023/03/19 03:45:47;;;;;;;4.90;2.93;;;;;;;2.93;nan;-23897.88;5018077;28;20321;-73
2023/03/19 03:48:13;;;;;;;6.73;3.00;;;;;;;2.87;nan;-23896.16;5017588;28;20179;-70
2023/03/19 03:50:39;;;;;;;4.73;2.83;;;;;;;2.84;nan;-23895.28;5012197;28;20183;-73
2023/03/19 03:53:05;;;;;;;4.40;3.50;;;;;;;2.65;nan;-23890.00;5017762;28;20212;-71
2023/03/19 03:55:31;;;;;;;5.10;3.17;;;;;;;2.60;nan;-23888.72;5018030;28;20528;-73
2023/03/19 03:57:57;;;;;;;4.43;3.07;;;;;;;2.64;nan;-23889.88;5017363;28;20694;-71
2023/03/19 04:00:24;;;;;;;5.80;3.03;;;;;;;2.84;nan;-23895.28;5017772;28;20189;-71
2023/03/19 04:02:50;;;;;;;7.13;3.87;;;;;;;2.74;nan;-23892.59;5017327;28;20171;-72
2023/03/19 04:05:16;;;;;;;5.03;3.10;;;;;;;2.60;nan;-23888.72;5017809;28;20354;-70
2023/03/19 04:07:42;;;;;;;6.83;3.77;;;;;;;2.89;nan;-23896.72;5017698;28;20171;-72
2023/03/19 04:10:09;;;;;;;4.57;3.33;;;;;;;2.48;nan;-23885.31;5017714;28;20534;-71
2023/03/19 04:12:36;;;;;;;7.30;3.97;;;;;;;3.05;nan;-23901.44;5017392;28;20187;-71
2023/03/19 04:15:03;;;;;;;5.53;3.80;;;;;;;2.94;nan;-23898.16;5017695;28;20200;-71
2023/03/19 04:17:28;;;;;;;5.57;3.70;;;;;;;2.99;nan;-23899.56;5018103;28;20246;-72
2023/03/19 04:19:53;;;;;;;6.03;4.10;;;;;;;2.81;nan;-23894.44;5017586;28;20509;-71
2023/03/19 04:22:19;;;;;;;3.67;2.30;;;;;;;2.63;nan;-23889.44;5017359;28;20223;-72
2023/03/19 04:24:44;;;;;;;6.30;3.80;;;;;;;2.37;nan;-23882.16;5017630;28;20556;-72
2023/03/19 04:27:10;;;;;;;3.27;2.80;;;;;;;2.32;nan;-23880.75;5011100;28;20270;-72
2023/03/19 04:29:35;;;;;;;6.20;3.87;;;;;;;2.43;nan;-23883.75;5015785;28;20194;-71
2023/03/19 04:32:00;;;;;;;5.20;3.07;;;;;;;2.49;nan;-23885.59;5014592;28;20265;-72
2023/03/19 04:34:26;;;;;;;3.87;3.47;;;;;;;2.38;nan;-23882.44;5014743;28;20633;-73
2023/03/19 04:36:52;;;;;;;3.20;2.83;;;;;;;2.33;nan;-23880.88;5014244;28;20681;-70
2023/03/19 04:39:18;;;;;;;2.70;2.50;;;;;;;2.35;nan;-23881.47;5014633;28;20170;-72
2023/03/19 04:41:44;;;;;;;4.97;3.03;;;;;;;2.55;nan;-23887.16;5014103;28;20693;-72
2023/03/19 04:44:09;;;;;;;3.57;3.00;;;;;;;2.50;nan;-23885.72;5013971;28;20183;-69
2023/03/19 04:46:35;;;;;;;5.90;2.53;;;;;;;2.63;nan;-23889.44;5014323;28;20252;-73
2023/03/19 04:49:00;;;;;;;4.60;3.33;;;;;;;2.43;nan;-23883.88;5013758;28;20274;-69
2023/03/19 04:51:27;;;;;;;6.30;3.43;;;;;;;1.98;nan;-23871.19;5014071;28;20198;-71
2023/03/19 04:53:52;;;;;;;5.67;4.00;;;;;;;1.95;nan;-23870.31;5014078;28;20274;-75
2023/03/19 04:56:18;;;;;;;7.67;4.10;;;;;;;2.45;nan;-23884.44;5013975;28;20180;-72
2023/03/19 04:58:44;;;;;;;7.43;4.23;;;;;;;2.60;nan;-23888.72;5013469;28;20238;-71
2023/03/19 05:01:10;;;;;;;12.17;5.10;;;;;;;2.49;nan;-23885.59;5013692;28;20277;-71
2023/03/19 05:03:36;;;;;;;5.33;3.30;;;;;;;2.48;nan;-23885.31;5007026;28;20740;-70
2023/03/19 05:06:01;;;;;;;9.67;4.80;;;;;;;2.68;nan;-23891.00;5013943;28;20253;-72
2023/03/19 05:08:27;;;;;;;4.73;3.87;;;;;;;2.76;nan;-23893.16;5013541;28;20237;-71
2023/03/19 05:10:52;;;;;;;7.97;3.73;;;;;;;2.81;nan;-23894.44;5045532;28;20195;-71
2023/03/19 05:13:18;;;;;;;7.37;3.73;;;;;;;2.86;nan;-23895.88;5013504;28;20288;-72
2023/03/19 05:15:44;;;;;;;4.63;3.60;;;;;;;2.94;nan;-23898.16;5013143;28;20179;-70
2023/03/19 05:18:10;;;;;;;5.13;3.90;;;;;;;2.96;nan;-23898.72;5013575;28;20179;-72
2023/03/19 05:20:36;;;;;;;5.93;3.60;;;;;;;2.95;nan;-23898.44;5013243;28;20290;-72
2023/03/19 05:23:01;;;;;;;8.57;4.60;;;;;;;2.74;nan;-23892.44;5028406;28;20183;-72
2023/03/19 05:25:27;;;;;;;5.57;3.30;;;;;;;3.28;nan;-23907.72;5013523;28;20211;-73
2023/03/19 05:27:53;;;;;;;6.17;4.13;;;;;;;3.08;nan;-23902.16;5012024;28;20234;-73
2023/03/19 05:30:19;;;;;;;7.73;3.87;;;;;;;3.34;nan;-23909.41;5014010;28;20215;-73
2023/03/19 05:32:45;;;;;;;7.93;4.00;;;;;;;3.02;nan;-23900.44;5014859;28;20230;-72
2023/03/19 05:35:12;;;;;;;7.63;3.67;;;;;;;3.53;nan;-23914.84;5014046;28;20172;-73
2023/03/19 05:37:38;;;;;;;5.47;2.90;;;;;;;3.65;nan;-23918.13;5013919;28;20180;-71
2023/03/19 05:40:04;;;;;;;10.33;3.90;;;;;;;3.46;nan;-23912.97;5013233;28;20176;-71
2023/03/19 05:42:30;;;;;;;10.47;3.97;;;;;;;3.84;nan;-23923.66;5012248;28;20184;-71
2023/03/19 05:44:55;;;;;;;6.50;3.33;;;;;;;4.36;nan;-23938.34;5011794;28;20722;-74
2023/03/19 05:47:21;;;;;;;3.53;3.23;;;;;;;4.34;nan;-23937.78;5012560;28;20230;-74
2023/03/19 05:49:46;;;;;;;3.83;2.70;;;;;;;4.44;nan;-23940.63;5012211;28;20187;-71
2023/03/19 05:52:12;;;;;;;5.07;3.00;;;;;;;4.88;nan;-23952.84;5013063;28;20200;-71
2023/03/19 05:54:37;;;;;;;3.30;2.60;;;;;;;4.93;nan;-23954.13;5013060;28;20203;-71
2023/03/19 05:57:03;;;;;;;5.20;3.20;;;;;;;5.12;nan;-23959.69;5013083;28;20255;-72
2023/03/19 05:59:28;;;;;;;4.23;2.90;;;;;;;5.15;nan;-23960.53;5011428;28;20288;-72
2023/03/19 06:01:54;;;;;;;5.83;2.50;;;;;;;5.30;nan;-23964.66;5013891;28;20180;-73
2023/03/19 06:04:20;;;;;;;6.77;3.80;;;;;;;5.76;nan;-23977.75;5012866;28;20180;-72
2023/03/19 06:06:46;;;;;;;5.63;3.53;;;;;;;5.73;nan;-23976.75;5013721;28;20260;-73
2023/03/19 06:09:11;;;;;;;4.50;2.83;;;;;;;5.94;nan;-23982.56;5012593;28;20590;-71
2023/03/19 06:11:39;;;;;;;8.00;2.47;;;;;;;6.05;nan;-23985.69;5012778;28;20263;-74
2023/03/19 06:14:05;;;;;;;3.50;2.60;;;;;;;6.12;nan;-23987.69;5012426;28;20174;-74
2023/03/19 06:16:31;;;;;;;4.20;2.90;;;;;;;6.08;nan;-23986.56;5012796;28;20183;-71
2023/03/19 06:18:57;;;;;;;6.27;3.87;;;;;;;6.06;nan;-23985.97;5006780;28;20190;-74
2023/03/19 06:21:28;;;;;;;6.67;3.00;;;;;;;5.71;nan;-23976.16;5012505;28;20223;-72
2023/03/19 06:23:54;;;;;;;5.60;3.47;;;;;;;5.83;nan;-23979.59;5012467;28;20302;-71
2023/03/19 06:26:20;;;;;;;7.70;2.63;;;;;;;5.73;nan;-23976.75;5012509;28;20644;-70
2023/03/19 06:28:45;;;;;;;2.87;2.50;;;;;;;6.17;nan;-23989.09;5012755;28;20282;-74
2023/03/19 06:31:10;;;;;;;4.27;2.77;;;;;;;6.49;nan;-23998.06;5013334;28;20261;-73
2023/03/19 06:33:36;;;;;;;3.90;2.80;;;;;;;6.54;nan;-23999.63;5014376;28;20254;-77
2023/03/19 06:36:01;;;;;;;5.90;2.53;;;;;;;6.65;nan;-24002.72;5013403;28;20190;-73
2023/03/19 06:38:27;;;;;;;6.83;3.30;;;;;;;6.64;nan;-24002.44;5013170;28;20178;-73
2023/03/19 06:40:52;;;;;;;3.80;2.67;;;;;;;6.65;nan;-24002.59;5012448;28;20264;-73
2023/03/19 06:43:18;;;;;;;6.77;3.10;;;;;;;6.78;nan;-24006.28;5012099;28;20277;-74
2023/03/19 06:45:43;;;;;;;4.17;2.83;;;;;;;7.15;nan;-24016.50;5011407;28;20172;-74
2023/03/19 06:48:08;;;;;;;2.77;2.53;;;;;;;7.12;nan;-24015.66;5012522;28;20614;-74
2023/03/19 06:50:34;;;;;;;6.60;3.23;;;;;;;6.88;nan;-24008.97;5012466;28;20171;-73
2023/03/19 06:53:01;;;;;;;5.17;3.17;;;;;;;7.30;nan;-24020.75;5012036;28;20699;-75
2023/03/19 06:55:26;;;;;;;4.97;3.33;;;;;;;6.98;nan;-24011.81;5011197;28;20224;-73
2023/03/19 06:57:52;;;;;;;6.17;3.17;;;;;;;7.19;nan;-24017.63;5011994;28;20317;-73
2023/03/19 07:00:18;;;;;;;5.33;3.37;;;;;;;7.33;nan;-24021.59;5005511;28;20362;-71
2023/03/19 07:02:44;;;;;;;5.93;3.07;;;;;;;7.58;nan;-24028.69;5012455;28;20219;-73
2023/03/19 07:05:12;;;;;;;4.43;2.63;;;;;;;7.99;nan;-24040.31;5012088;28;20656;-73
2023/03/19 07:07:38;;;;;;;4.23;3.03;;;;;;;7.74;nan;-24033.22;5011775;28;20219;-73
2023/03/19 07:10:04;;;;;;;5.13;2.63;;;;;;;7.53;nan;-24027.28;5027046;28;20245;-73
2023/03/19 07:12:29;;;;;;;6.00;2.87;;;;;;;7.62;nan;-24029.69;5011586;28;20203;-73
2023/03/19 07:14:55;;;;;;;4.17;2.77;;;;;;;7.84;nan;-24035.91;5012280;28;20263;-72
2023/03/19 07:17:22;;;;;;;6.03;3.20;;;;;;;7.97;nan;-24039.59;5012134;28;20631;-71
2023/03/19 07:19:48;;;;;;;4.33;2.83;;;;;;;7.68;nan;-24031.53;5012068;28;20176;-72
2023/03/19 07:22:13;;;;;;;5.03;3.13;;;;;;;8.14;nan;-24044.28;5011880;28;20180;-72
2023/03/19 07:24:38;;;;;;;4.60;2.47;;;;;;;8.03;nan;-24041.28;5011634;28;20176;-74
2023/03/19 07:27:04;;;;;;;4.47;2.73;;;;;;;8.50;nan;-24054.47;5011734;28;20188;-74
2023/03/19 07:29:30;;;;;;;5.13;2.97;;;;;;;8.65;nan;-24058.72;5027286;28;20242;-74
2023/03/19 07:31:55;;;;;;;6.40;2.67;;;;;;;8.56;nan;-24056.03;5012285;28;20261;-73
2023/03/19 07:34:21;;;;;;;3.67;3.10;;;;;;;8.86;nan;-24064.66;5009899;28;20180;-73
2023/03/19 07:36:47;;;;;;;5.87;3.50;;;;;;;9.31;nan;-24077.09;5007886;28;20639;-76
2023/03/19 07:39:13;;;;;;;3.97;2.50;;;;;;;9.20;nan;-24074.00;5027113;28;20188;-72
2023/03/19 07:41:38;;;;;;;3.70;3.00;;;;;;;9.31;nan;-24077.09;5012019;28;20250;-74
2023/03/19 07:44:04;;;;;;;3.80;2.93;;;;;;;9.71;nan;-24088.41;5011942;28;20184;-73
2023/03/19 07:46:29;;;;;;;3.67;2.70;;;;;;;9.72;nan;-24088.69;5012278;28;20238;-74
2023/03/19 07:48:55;;;;;;;3.73;2.57;;;;;;;10.27;nan;-24103.94;5011891;28;20176;-72
2023/03/19 07:51:20;;;;;;;3.30;2.60;;;;;;;10.29;nan;-24104.50;5011445;28;20180;-74
2023/03/19 07:53:46;;;;;;;4.13;2.50;;;;;;;10.18;nan;-24101.41;5010744;28;20227;-73
2023/03/19 07:56:12;;;;;;;5.50;2.90;;;;;;;10.26;nan;-24103.66;5011699;28;20685;-74
2023/03/19 07:58:37;;;;;;;2.97;2.63;;;;;;;10.38;nan;-24106.91;5012225;28;20219;-75
2023/03/19 08:01:03;;;;;;;11.70;2.93;;;;;;;10.49;nan;-24110.16;5010576;28;20180;-72
2023/03/19 08:03:28;;;;;;;3.50;2.67;;;;;;;10.98;nan;-24123.84;5011915;28;20176;-77
2023/03/19 08:05:54;;;;;;;5.40;2.72;;;;;;;10.89;nan;-24121.16;5030488;28;20207;-73
2023/03/19 08:08:19;;;;;;;5.68;2.40;;;;;;;11.16;nan;-24128.75;5013839;28;20188;-73
2023/03/19 08:10:46;;;;;;;3.80;2.72;;;;;;;11.24;nan;-24131.03;5025506;28;20227;-73
2023/03/19 08:13:13;;;;;;;3.22;2.70;;;;;;;11.39;nan;-24135.25;5012958;28;20200;-72
2023/03/19 08:15:38;;;;;;;4.95;2.92;;;;;;;11.44;nan;-24136.66;5014706;28;20260;-75
2023/03/19 08:18:04;;;;;;;4.38;2.85;;;;;;;11.44;nan;-24136.50;5014958;28;20667;-74
2023/03/19 08:20:30;;;;;;;3.67;2.50;;;;;;;11.09;nan;-24126.78;5014492;28;20188;-74
2023/03/19 08:22:56;;;;;;;3.88;2.75;;;;;;;11.11;nan;-24127.34;5014702;28;20238;-72
2023/03/19 08:25:22;;;;;;;3.92;2.35;;;;;;;11.74;nan;-24144.84;5014823;28;20168;-72
2023/03/19 08:27:47;;;;;;;2.70;2.40;;;;;;;11.90;nan;-24149.47;5014646;28;20172;-74
2023/03/19 08:30:13;;;;;;;3.22;2.20;;;;;;;11.71;nan;-24143.97;5015066;28;20644;-73
2023/03/19 08:32:39;;;;;;;2.50;2.30;;;;;;;11.79;nan;-24146.25;5014745;28;20227;-73
2023/03/19 08:35:06;;;;;;;4.38;2.53;;;;;;;11.66;nan;-24142.56;5016296;28;20594;-73
2023/03/19 08:37:31;;;;;;;7.45;2.50;;;;;;;12.03;nan;-24152.84;5034804;28;20196;-73
2023/03/19 08:39:57;;;;;;;3.47;2.35;;;;;;;12.32;nan;-24161.03;5016023;28;20670;-70
2023/03/19 08:42:22;;;;;;;3.72;2.65;;;;;;;12.44;nan;-24164.41;5031593;28;20212;-71
2023/03/19 08:44:48;;;;;;;5.95;2.47;;;;;;;12.38;nan;-24162.72;5016499;28;20175;-73
2023/03/19 08:47:14;;;;;;;13.93;3.17;;;;;;;12.84;nan;-24175.50;5012792;28;20180;-73
2023/03/19 08:49:39;;;;;;;3.17;2.35;;;;;;;13.00;nan;-24180.00;5014399;28;20184;-72
2023/03/19 08:52:05;;;;;;;5.20;2.83;;;;;;;13.10;nan;-24182.69;5013965;28;20200;-71
2023/03/19 08:54:31;;;;;;;3.60;2.70;;;;;;;13.08;nan;-24182.25;5013963;28;20188;-74
2023/03/19 08:56:56;;;;;;;5.40;2.85;;;;;;;13.17;nan;-24184.78;5013970;28;20231;-74
2023/03/19 08:59:22;;;;;;;6.95;3.75;;;;;;;13.46;nan;-24192.66;5013082;28;20258;-74
2023/03/19 09:01:51;;;;;;;5.13;2.50;;;;;;;13.18;nan;-24185.06;5014082;28;20259;-72
2023/03/19 09:04:20;;;;;;;14.55;4.68;;;;;;;13.50;nan;-24193.91;5013924;28;20180;-73
2023/03/19 09:06:50;;;;;;;2.72;2.38;;;;;;;13.41;nan;-24191.38;5012934;28;20632;-73
2023/03/19 09:09:19;;;;;;;3.40;2.05;;;;;;;13.56;nan;-24195.47;5014276;28;20172;-70
2023/03/19 09:11:45;;;;;;;2.75;2.25;;;;;;;13.53;nan;-24194.75;5014292;28;20614;-72
2023/03/19 09:14:10;;;;;;;2.15;1.85;;;;;;;13.68;nan;-24198.84;5013806;28;20667;-76
2023/03/19 09:16:36;;;;;;;3.65;2.40;;;;;;;13.70;nan;-24199.41;5028202;28;20270;-73
2023/03/19 09:19:02;;;;;;;2.58;2.20;;;;;;;13.62;nan;-24197.16;5013593;28;20212;-74
2023/03/19 09:21:27;;;;;;;3.20;2.33;;;;;;;13.71;nan;-24199.81;5013534;28;20164;-72
2023/03/19 09:23:52;;;;;;;3.05;2.20;;;;;;;13.59;nan;-24196.44;5013661;28;20203;-71
2023/03/19 09:26:18;;;;;;;5.43;2.38;;;;;;;13.66;nan;-24198.28;5013620;28;20263;-74
2023/03/19 09:28:43;;;;;;;4.85;2.55;;;;;;;13.63;nan;-24197.44;5013689;28;20215;-73
2023/03/19 09:31:10;;;;;;;6.18;2.55;;;;;;;13.49;nan;-24193.63;5013706;28;20645;-74
2023/03/19 09:33:36;;;;;;;3.45;2.00;;;;;;;13.62;nan;-24197.16;5013626;28;20203;-73
2023/03/19 09:36:01;;;;;;;2.50;2.17;;;;;;;13.78;nan;-24201.63;5013341;28;20175;-71
2023/03/19 09:38:27;;;;;;;14.82;3.13;;;;;;;14.11;nan;-24210.91;5014058;28;20546;-74
2023/03/19 09:41:25;;;;;;;4.45;2.50;;;;;;;14.19;nan;-24213.00;5013057;28;20631;-73
2023/03/19 09:44:28;;;;;;;3.45;2.20;;;;;;;14.24;nan;-24214.28;5018281;28;20611;-71
2023/03/19 09:47:03;;;;;;;3.35;2.63;;;;;;;14.26;nan;-24214.97;5014164;28;20202;-74
2023/03/19 09:49:37;;;;;;;5.72;2.80;;;;;;;14.16;nan;-24212.31;5013647;28;20670;-74
2023/03/19 09:52:24;;;;;;;3.42;2.63;;;;;;;13.96;nan;-24206.56;5012988;28;20207;-73
2023/03/19 09:54:52;;;;;;;3.95;2.60;;;;;;;14.38;nan;-24218.22;5012926;28;20184;-72
2023/03/19 09:57:18;;;;;;;3.72;2.95;;;;;;;14.62;nan;-24224.94;5005309;28;20703;-73
2023/03/19 09:59:44;;;;;;;3.20;2.30;;;;;;;14.50;nan;-24221.56;5011786;28;20195;-73
2023/03/19 10:02:22;;;;;;;2.97;2.15;;;;;;;14.99;nan;-24235.16;5013516;28;20551;-71
2023/03/19 10:05:04;;;;;;;4.43;2.60;;;;;;;14.91;nan;-24233.06;5006858;28;20184;-73
2023/03/19 10:07:54;;;;;;;3.55;2.40;;;;;;;15.07;nan;-24237.28;5011765;28;20628;-73
2023/03/19 10:10:36;;;;;;;4.03;2.10;;;;;;;15.20;nan;-24241.06;5013561;28;20164;-75
2023/03/19 10:13:17;;;;;;;3.50;2.28;;;;;;;14.37;nan;-24218.06;5012771;28;20304;-71
2023/03/19 10:15:44;;;;;;;4.07;2.00;;;;;;;14.64;nan;-24225.34;5013158;28;20234;-73
2023/03/19 10:18:20;;;;;;;3.95;2.42;;;;;;;14.86;nan;-24231.66;5012651;28;20702;-73
2023/03/19 10:21:18;;;;;;;5.53;2.15;;;;;;;15.00;nan;-24235.59;5013458;28;20160;-75
2023/03/19 10:24:13;;;;;;;1.98;1.67;;;;;;;14.85;nan;-24231.25;5012282;28;20674;-72
2023/03/19 10:26:39;;;;;;;3.00;2.08;;;;;;;14.47;nan;-24220.72;5014765;28;20192;-73
2023/03/19 10:29:08;;;;;;;3.50;1.90;;;;;;;14.62;nan;-24224.94;5011942;28;20259;-71
2023/03/19 10:31:43;;;;;;;2.58;2.00;;;;;;;15.27;nan;-24242.88;5012495;28;20651;-71
2023/03/19 10:34:35;;;;;;;2.90;2.20;;;;;;;14.99;nan;-24235.31;5012141;28;20545;-74
2023/03/19 10:37:22;;;;;;;2.63;1.80;;;;;;;15.03;nan;-24236.28;5011853;28;20259;-71
2023/03/19 10:39:50;;;;;;;4.00;2.28;;;;;;;15.07;nan;-24237.28;5013890;28;20168;-75
2023/03/19 10:42:38;;;;;;;3.47;2.10;;;;;;;15.70;nan;-24254.91;5008739;28;20180;-74
2023/03/19 10:45:22;;;;;;;5.35;2.33;;;;;;;15.92;nan;-24260.94;5004596;28;20175;-74
2023/03/19 10:47:47;;;;;;;3.05;2.25;;;;;;;15.90;nan;-24260.38;5012224;28;20179;-72
2023/03/19 10:50:19;;;;;;;2.50;1.92;;;;;;;15.79;nan;-24257.28;5011993;28;20754;-74
2023/03/19 10:52:50;;;;;;;3.00;2.25;;;;;;;15.56;nan;-24251.00;5012098;28;20199;-72
2023/03/19 10:55:21;;;;;;;5.47;2.50;;;;;;;16.08;nan;-24265.41;5012616;28;20168;-74
2023/03/19 10:57:49;;;;;;;2.55;2.00;;;;;;;15.67;nan;-24253.94;5012177;28;20223;-73
2023/03/19 11:00:18;;;;;;;2.15;1.95;;;;;;;15.63;nan;-24252.94;5011372;28;20727;-71
2023/03/19 11:02:51;;;;;;;2.10;1.83;;;;;;;15.78;nan;-24257.16;5012146;28;20172;-73
2023/03/19 11:05:20;;;;;;;2.50;1.95;;;;;;;16.09;nan;-24265.69;5012826;28;20180;-72
2023/03/19 11:07:49;;;;;;;3.88;2.10;;;;;;;15.61;nan;-24252.41;5012344;28;20195;-70
2023/03/19 11:10:15;;;;;;;2.92;2.15;;;;;;;16.04;nan;-24264.28;5012289;28;20176;-72
2023/03/19 11:12:47;;;;;;;4.10;1.85;;;;;;;15.90;nan;-24260.38;5013070;28;20219;-72
2023/03/19 11:15:46;;;;;;;3.75;2.40;;;;;;;16.13;nan;-24266.81;5013964;28;20178;-72
2023/03/19 11:18:23;;;;;;;4.57;2.13;;;;;;;16.18;nan;-24268.06;5012435;28;20219;-74
2023/03/19 11:20:58;;;;;;;4.38;2.28;;;;;;;16.60;nan;-24279.81;5010438;28;20661;-74
2023/03/19 11:23:27;;;;;;;3.30;2.22;;;;;;;16.57;nan;-24278.97;5011963;28;20279;-73
2023/03/19 11:25:54;;;;;;;3.20;2.35;;;;;;;16.38;nan;-24273.50;5011712;28;20182;-70
2023/03/19 11:28:24;;;;;;;2.97;2.00;;;;;;;16.99;nan;-24290.44;5043183;28;20187;-72
2023/03/19 11:30:59;;;;;;;3.45;2.05;;;;;;;16.69;nan;-24282.19;5011741;28;20176;-72
2023/03/19 11:33:46;;;;;;;2.10;1.70;;;;;;;16.22;nan;-24269.19;5043315;28;20211;-72
2023/03/19 11:36:40;;;;;;;2.38;1.70;;;;;;;16.35;nan;-24272.81;5013095;28;20560;-72
2023/03/19 11:39:34;;;;;;;3.83;1.95;;;;;;;16.68;nan;-24281.91;5012813;28;20191;-75
2023/03/19 11:42:18;;;;;;;3.30;1.98;;;;;;;16.64;nan;-24280.78;5017964;28;20179;-71
2023/03/19 11:45:16;;;;;;;4.82;2.22;;;;;;;16.42;nan;-24274.63;5015420;28;20171;-72
2023/03/19 11:48:01;;;;;;;3.40;2.08;;;;;;;16.40;nan;-24274.22;5014044;28;20659;-71
2023/03/19 11:50:29;;;;;;;4.15;2.40;;;;;;;16.53;nan;-24277.72;5023985;28;20283;-73